createdAt,value
2019-02-03T00:00:44.919Z,997.6
2019-02-03T00:01:46.371Z,997.6
2019-02-03T00:02:47.755Z,997.6
2019-02-03T00:03:49.158Z,997.7
2019-02-03T00:04:50.560Z,997.7
2019-02-03T00:05:51.948Z,997.6
2019-02-03T00:07:02.969Z,997.6
2019-02-03T00:07:54.724Z,997.7
2019-02-03T00:08:56.117Z,997.7
2019-02-03T00:09:57.508Z,997.7
2019-02-03T00:10:58.854Z,997.8
2019-02-03T00:12:00.349Z,997.8
2019-02-03T00:13:01.737Z,997.8
2019-02-03T00:14:03.181Z,997.8
2019-02-03T00:15:04.593Z,997.8
2019-02-03T00:16:06.001Z,997.9
2019-02-03T00:17:07.430Z,997.8
2019-02-03T00:18:08.849Z,997.8
2019-02-03T00:19:10.231Z,997.9
2019-02-03T00:20:11.638Z,997.9
2019-02-03T00:21:12.995Z,997.9
2019-02-03T00:22:14.377Z,997.8
2019-02-03T00:23:15.765Z,997.8
2019-02-03T00:24:17.262Z,997.8
2019-02-03T00:25:18.655Z,997.9
2019-02-03T00:26:20.051Z,997.9
2019-02-03T00:27:21.452Z,997.9
2019-02-03T00:28:23.107Z,997.9
2019-02-03T00:29:24.499Z,997.8
2019-02-03T00:30:25.881Z,997.8
2019-02-03T00:31:27.235Z,997.9
2019-02-03T00:32:28.626Z,997.9
2019-02-03T00:33:30.069Z,998.0
2019-02-03T00:34:31.441Z,998.0
2019-02-03T00:35:32.824Z,998.1
2019-02-03T00:36:34.202Z,998.1
2019-02-03T00:37:35.642Z,998.1
2019-02-03T00:38:37.036Z,998.1
2019-02-03T00:39:38.425Z,998.1
2019-02-03T00:40:39.799Z,998.1
2019-02-03T00:41:41.232Z,998.1
2019-02-03T00:42:42.565Z,998.2
2019-02-03T00:43:43.957Z,998.2
2019-02-03T00:44:45.370Z,998.1
2019-02-03T00:45:46.753Z,998.2
2019-02-03T00:46:48.141Z,998.1
2019-02-03T00:47:49.527Z,998.2
2019-02-03T00:48:50.970Z,998.2
2019-02-03T00:49:52.371Z,998.3
2019-02-03T00:50:53.759Z,998.3
2019-02-03T00:51:55.110Z,998.3
2019-02-03T00:52:56.494Z,998.4
2019-02-03T00:53:57.915Z,998.3
2019-02-03T00:54:59.316Z,998.4
2019-02-03T00:56:00.713Z,998.4
2019-02-03T00:57:02.081Z,998.4
2019-02-03T00:58:03.469Z,998.5
2019-02-03T00:59:04.867Z,998.5
2019-02-03T01:00:06.260Z,998.5
2019-02-03T01:01:07.656Z,998.5
2019-02-03T01:02:09.014Z,998.4
2019-02-03T01:03:10.451Z,998.5
2019-02-03T01:04:11.776Z,998.5
2019-02-03T01:05:13.176Z,998.6
2019-02-03T01:06:14.588Z,998.6
2019-02-03T01:07:26.895Z,998.6
2019-02-03T01:08:17.326Z,998.6
2019-02-03T01:09:18.789Z,998.6
2019-02-03T01:10:20.105Z,998.7
2019-02-03T01:11:21.475Z,998.7
2019-02-03T01:12:22.859Z,998.7
2019-02-03T01:13:24.243Z,998.7
2019-02-03T01:14:25.630Z,998.7
2019-02-03T01:15:27.019Z,998.7
2019-02-03T01:16:28.429Z,998.7
2019-02-03T01:17:29.812Z,998.7
2019-02-03T01:18:31.200Z,998.8
2019-02-03T01:19:32.586Z,998.8
2019-02-03T01:20:33.973Z,998.8
2019-02-03T01:21:35.381Z,998.8
2019-02-03T01:22:36.769Z,998.9
2019-02-03T01:23:38.182Z,999.0
2019-02-03T01:24:39.572Z,998.9
2019-02-03T01:25:40.958Z,999.0
2019-02-03T01:26:42.339Z,999.0
2019-02-03T01:27:43.731Z,999.0
2019-02-03T01:28:45.116Z,999.0
2019-02-03T01:29:46.500Z,999.0
2019-02-03T01:30:47.880Z,999.1
2019-02-03T01:31:49.403Z,999.1
2019-02-03T01:32:50.664Z,999.1
2019-02-03T01:33:51.997Z,999.1
2019-02-03T01:34:53.346Z,999.1
2019-02-03T01:35:54.730Z,999.1
2019-02-03T01:36:56.112Z,999.1
2019-02-03T01:37:57.578Z,999.2
2019-02-03T01:38:58.969Z,999.2
2019-02-03T01:40:00.379Z,999.2
2019-02-03T01:41:01.706Z,999.1
2019-02-03T01:42:03.084Z,999.2
2019-02-03T01:43:04.634Z,999.2
2019-02-03T01:44:06.019Z,999.3
2019-02-03T01:45:07.408Z,999.3
2019-02-03T01:46:08.794Z,999.3
2019-02-03T01:47:10.532Z,999.4
2019-02-03T01:48:11.908Z,999.3
2019-02-03T01:49:13.312Z,999.4
2019-02-03T01:50:14.698Z,999.4
2019-02-03T01:51:16.044Z,999.4
2019-02-03T01:52:17.435Z,999.4
2019-02-03T01:53:18.825Z,999.4
2019-02-03T01:54:20.389Z,999.4
2019-02-03T01:55:21.772Z,999.4
2019-02-03T01:56:23.159Z,999.4
2019-02-03T01:57:24.538Z,999.4
2019-02-03T01:58:25.934Z,999.4
2019-02-03T01:59:27.381Z,999.4
2019-02-03T02:00:28.867Z,999.5
2019-02-03T02:01:30.213Z,999.5
2019-02-03T02:02:31.595Z,999.5
2019-02-03T02:03:32.984Z,999.6
2019-02-03T02:04:34.503Z,999.6
2019-02-03T02:05:35.932Z,999.6
2019-02-03T02:06:37.630Z,999.6
2019-02-03T02:07:50.689Z,999.6
2019-02-03T02:08:40.365Z,999.7
2019-02-03T02:09:41.747Z,999.7
2019-02-03T02:10:43.274Z,999.7
2019-02-03T02:11:44.617Z,999.6
2019-02-03T02:12:46.052Z,999.8
2019-02-03T02:13:47.438Z,999.8
2019-02-03T02:14:48.821Z,999.8
2019-02-03T02:15:50.297Z,999.8
2019-02-03T02:16:51.689Z,999.8
2019-02-03T02:17:53.069Z,999.8
2019-02-03T02:18:54.457Z,999.8
2019-02-03T02:19:55.839Z,999.9
2019-02-03T02:20:57.278Z,999.9
2019-02-03T02:21:58.673Z,999.9
2019-02-03T02:23:00.058Z,999.9
2019-02-03T02:24:01.405Z,999.9
2019-02-03T02:25:02.785Z,999.9
2019-02-03T02:26:04.185Z,999.9
2019-02-03T02:27:05.646Z,999.9
2019-02-03T02:28:07.049Z,999.9
2019-02-03T02:29:08.434Z,999.9
2019-02-03T02:30:09.844Z,999.9
2019-02-03T02:31:11.175Z,999.9
2019-02-03T02:32:12.616Z,999.9
2019-02-03T02:33:14.045Z,999.9
2019-02-03T02:34:15.433Z,999.9
2019-02-03T02:35:16.822Z,999.9
2019-02-03T02:36:18.225Z,1000.0
2019-02-03T02:37:19.684Z,1000.0
2019-02-03T02:38:21.145Z,1000.0
2019-02-03T02:39:22.531Z,1000.0
2019-02-03T02:40:23.877Z,999.9
2019-02-03T02:41:25.296Z,1000.0
2019-02-03T02:42:26.643Z,1000.0
2019-02-03T02:43:28.098Z,1000.0
2019-02-03T02:44:29.489Z,1000.0
2019-02-03T02:45:30.878Z,1000.0
2019-02-03T02:46:32.263Z,1000.0
2019-02-03T02:47:33.645Z,1000.0
2019-02-03T02:48:35.061Z,1000.0
2019-02-03T02:49:36.467Z,1000.0
2019-02-03T02:50:37.818Z,1000.0
2019-02-03T02:51:39.195Z,1000.0
2019-02-03T02:52:40.578Z,1000.0
2019-02-03T02:53:41.968Z,1000.0
2019-02-03T02:54:43.356Z,1000.0
2019-02-03T02:55:44.737Z,1000.0
2019-02-03T02:56:46.135Z,1000.0
2019-02-03T02:57:47.519Z,1000.0
2019-02-03T02:58:48.913Z,1000.0
2019-02-03T02:59:50.324Z,1000.1
2019-02-03T03:00:51.679Z,1000.0
2019-02-03T03:01:53.070Z,1000.1
2019-02-03T03:02:54.454Z,1000.1
2019-02-03T03:03:55.894Z,1000.1
2019-02-03T03:04:57.283Z,1000.1
2019-02-03T03:05:58.637Z,1000.1
2019-02-03T03:07:00.025Z,1000.1
2019-02-03T03:08:01.410Z,1000.1
2019-02-03T03:09:02.793Z,1000.2
2019-02-03T03:10:04.151Z,1000.1
2019-02-03T03:11:05.547Z,1000.1
2019-02-03T03:12:06.935Z,1000.1
2019-02-03T03:13:08.316Z,1000.1
2019-02-03T03:14:09.700Z,1000.1
2019-02-03T03:15:11.078Z,1000.2
2019-02-03T03:16:12.464Z,1000.2
2019-02-03T03:17:13.866Z,1000.3
2019-02-03T03:18:15.250Z,1000.2
2019-02-03T03:19:16.640Z,1000.2
2019-02-03T03:20:18.096Z,1000.2
2019-02-03T03:21:19.348Z,1000.2
2019-02-03T03:22:20.737Z,1000.2
2019-02-03T03:23:22.121Z,1000.3
2019-02-03T03:24:23.511Z,1000.2
2019-02-03T03:25:24.906Z,1000.2
2019-02-03T03:26:26.308Z,1000.2
2019-02-03T03:27:27.694Z,1000.2
2019-02-03T03:28:29.081Z,1000.2
2019-02-03T03:29:30.472Z,1000.3
2019-02-03T03:30:31.822Z,1000.2
2019-02-03T03:31:33.215Z,1000.2
2019-02-03T03:32:34.602Z,1000.2
2019-02-03T03:33:35.987Z,1000.2
2019-02-03T03:34:37.390Z,1000.2
2019-02-03T03:35:38.830Z,1000.1
2019-02-03T03:36:40.214Z,1000.1
2019-02-03T03:37:41.604Z,1000.1
2019-02-03T03:38:42.986Z,1000.1
2019-02-03T03:39:44.338Z,1000.1
2019-02-03T03:40:45.797Z,1000.1
2019-02-03T03:41:47.388Z,1000.1
2019-02-03T03:42:48.806Z,1000.1
2019-02-03T03:43:50.191Z,1000.1
2019-02-03T03:44:51.579Z,1000.2
2019-02-03T03:45:52.985Z,1000.2
2019-02-03T03:46:54.461Z,1000.2
2019-02-03T03:47:55.846Z,1000.2
2019-02-03T03:48:57.229Z,1000.3
2019-02-03T03:49:58.578Z,1000.3
2019-02-03T03:50:59.963Z,1000.3
2019-02-03T03:52:01.422Z,1000.3
2019-02-03T03:53:02.824Z,1000.4
2019-02-03T03:54:04.215Z,1000.4
2019-02-03T03:55:05.606Z,1000.4
2019-02-03T03:56:06.987Z,1000.4
2019-02-03T03:57:08.374Z,1000.3
2019-02-03T03:58:09.754Z,1000.3
2019-02-03T03:59:11.163Z,1000.3
2019-02-03T04:00:12.494Z,1000.4
2019-02-03T04:01:13.873Z,1000.4
2019-02-03T04:02:15.276Z,1000.4
2019-02-03T04:03:16.751Z,1000.4
2019-02-03T04:04:18.127Z,1000.4
2019-02-03T04:05:19.517Z,1000.4
2019-02-03T04:06:20.899Z,1000.4
2019-02-03T04:07:22.287Z,1000.4
2019-02-03T04:08:23.768Z,1000.4
2019-02-03T04:09:25.201Z,1000.4
2019-02-03T04:10:26.588Z,1000.4
2019-02-03T04:11:28.013Z,1000.4
2019-02-03T04:12:29.397Z,1000.3
2019-02-03T04:13:30.808Z,1000.3
2019-02-03T04:14:32.193Z,1000.3
2019-02-03T04:15:33.578Z,1000.4
2019-02-03T04:16:34.968Z,1000.5
2019-02-03T04:17:36.383Z,1000.5
2019-02-03T04:18:37.766Z,1000.5
2019-02-03T04:19:39.151Z,1000.5
2019-02-03T04:20:40.535Z,1000.6
2019-02-03T04:21:41.919Z,1000.7
2019-02-03T04:22:43.303Z,1000.8
2019-02-03T04:23:44.739Z,1000.8
2019-02-03T04:24:46.296Z,1000.8
2019-02-03T04:25:47.674Z,1000.9
2019-02-03T04:26:49.057Z,1000.9
2019-02-03T04:27:50.437Z,1000.9
2019-02-03T04:28:51.822Z,1000.9
2019-02-03T04:29:53.259Z,1001.1
2019-02-03T04:30:54.643Z,1001.1
2019-02-03T04:31:56.037Z,1001.1
2019-02-03T04:32:57.414Z,1001.2
2019-02-03T04:33:58.802Z,1001.2
2019-02-03T04:35:00.355Z,1001.3
2019-02-03T04:36:01.621Z,1001.4
2019-02-03T04:37:03.014Z,1001.5
2019-02-03T04:38:04.400Z,1001.5
2019-02-03T04:39:05.746Z,1001.5
2019-02-03T04:40:07.132Z,1001.5
2019-02-03T04:41:08.597Z,1001.5
2019-02-03T04:42:09.976Z,1001.6
2019-02-03T04:43:11.359Z,1001.6
2019-02-03T04:44:12.711Z,1001.7
2019-02-03T04:45:14.104Z,1001.7
2019-02-03T04:46:15.498Z,1001.8
2019-02-03T04:47:16.884Z,1001.8
2019-02-03T04:48:18.266Z,1001.8
2019-02-03T04:49:19.628Z,1001.9
2019-02-03T04:50:21.050Z,1001.9
2019-02-03T04:51:22.493Z,1002.0
2019-02-03T04:52:23.883Z,1002.0
2019-02-03T04:53:25.276Z,1002.0
2019-02-03T04:54:26.651Z,1002.0
2019-02-03T04:55:28.054Z,1002.1
2019-02-03T04:56:29.491Z,1002.1
2019-02-03T04:57:30.882Z,1002.1
2019-02-03T04:58:32.269Z,1002.1
2019-02-03T04:59:33.615Z,1002.1
2019-02-03T05:00:35.024Z,1002.1
2019-02-03T05:01:36.431Z,1002.2
2019-02-03T05:02:37.804Z,1002.2
2019-02-03T05:03:39.189Z,1002.3
2019-02-03T05:04:40.571Z,1002.2
2019-02-03T05:05:41.958Z,1002.2
2019-02-03T05:06:43.348Z,1002.2
2019-02-03T05:07:44.727Z,1002.3
2019-02-03T05:08:46.093Z,1002.4
2019-02-03T05:09:47.482Z,1002.4
2019-02-03T05:10:48.884Z,1002.3
2019-02-03T05:11:50.247Z,1002.4
2019-02-03T05:12:51.653Z,1002.4
2019-02-03T05:13:53.042Z,1002.4
2019-02-03T05:14:54.460Z,1002.4
2019-02-03T05:15:55.839Z,1002.4
2019-02-03T05:16:57.269Z,1002.4
2019-02-03T05:17:58.698Z,1002.4
2019-02-03T05:19:00.046Z,1002.4
2019-02-03T05:20:01.446Z,1002.5
2019-02-03T05:21:02.832Z,1002.5
2019-02-03T05:22:04.220Z,1002.6
2019-02-03T05:23:05.676Z,1002.6
2019-02-03T05:24:07.062Z,1002.6
2019-02-03T05:25:08.457Z,1002.6
2019-02-03T05:26:09.841Z,1002.6
2019-02-03T05:27:11.227Z,1002.6
2019-02-03T05:28:12.577Z,1002.7
2019-02-03T05:29:13.965Z,1002.7
2019-02-03T05:30:15.353Z,1002.7
2019-02-03T05:31:16.734Z,1002.6
2019-02-03T05:32:18.120Z,1002.7
2019-02-03T05:33:19.522Z,1002.7
2019-02-03T05:34:20.921Z,1002.7
2019-02-03T05:35:22.308Z,1002.8
2019-02-03T05:36:23.691Z,1002.8
2019-02-03T05:37:25.081Z,1002.8
2019-02-03T05:38:26.474Z,1002.8
2019-02-03T05:39:27.878Z,1002.8
2019-02-03T05:40:29.290Z,1002.8
2019-02-03T05:41:30.655Z,1002.8
2019-02-03T05:42:32.047Z,1002.9
2019-02-03T05:43:33.431Z,1002.9
2019-02-03T05:44:34.826Z,1003.0
2019-02-03T05:45:36.213Z,1002.9
2019-02-03T05:46:37.602Z,1003.0
2019-02-03T05:47:39.000Z,1002.9
2019-02-03T05:48:40.346Z,1003.0
2019-02-03T05:49:41.749Z,1002.9
2019-02-03T05:50:43.189Z,1003.0
2019-02-03T05:51:44.572Z,1002.9
2019-02-03T05:52:46.084Z,1002.9
2019-02-03T05:53:47.308Z,1002.9
2019-02-03T05:54:48.699Z,1003.0
2019-02-03T05:55:50.097Z,1003.0
2019-02-03T05:56:51.478Z,1003.0
2019-02-03T05:57:52.843Z,1003.0
2019-02-03T05:58:54.228Z,1003.0
2019-02-03T05:59:55.618Z,1003.0
2019-02-03T06:00:57.040Z,1003.0
2019-02-03T06:01:58.424Z,1003.0
2019-02-03T06:02:59.802Z,1003.0
2019-02-03T06:04:01.192Z,1003.0
2019-02-03T06:05:02.583Z,1003.0
2019-02-03T06:06:03.992Z,1003.0
2019-02-03T06:07:05.376Z,1003.0
2019-02-03T06:08:06.766Z,1003.1
2019-02-03T06:09:08.252Z,1003.1
2019-02-03T06:10:09.642Z,1003.1
2019-02-03T06:11:11.025Z,1003.1
2019-02-03T06:12:12.406Z,1003.2
2019-02-03T06:13:13.788Z,1003.2
2019-02-03T06:14:15.172Z,1003.2
2019-02-03T06:15:16.567Z,1003.2
2019-02-03T06:16:17.954Z,1003.2
2019-02-03T06:17:19.373Z,1003.2
2019-02-03T06:18:20.716Z,1003.2
2019-02-03T06:19:22.107Z,1003.2
2019-02-03T06:20:23.490Z,1003.2
2019-02-03T06:21:24.880Z,1003.2
2019-02-03T06:22:26.264Z,1003.2
2019-02-03T06:23:27.645Z,1003.2
2019-02-03T06:24:29.037Z,1003.3
2019-02-03T06:25:30.424Z,1003.3
2019-02-03T06:26:31.806Z,1003.3
2019-02-03T06:27:33.158Z,1003.3
2019-02-03T06:28:34.546Z,1003.3
2019-02-03T06:29:35.928Z,1003.3
2019-02-03T06:30:37.339Z,1003.3
2019-02-03T06:31:38.727Z,1003.4
2019-02-03T06:32:40.112Z,1003.4
2019-02-03T06:33:41.493Z,1003.4
2019-02-03T06:34:42.877Z,1003.4
2019-02-03T06:35:44.264Z,1003.4
2019-02-03T06:36:45.668Z,1003.5
2019-02-03T06:37:47.025Z,1003.4
2019-02-03T06:38:48.563Z,1003.4
2019-02-03T06:39:49.792Z,1003.3
2019-02-03T06:40:51.171Z,1003.3
2019-02-03T06:41:52.588Z,1003.5
2019-02-03T06:42:54.067Z,1003.5
2019-02-03T06:43:55.453Z,1003.5
2019-02-03T06:44:56.840Z,1003.4
2019-02-03T06:45:58.231Z,1003.5
2019-02-03T06:46:59.616Z,1003.5
2019-02-03T06:48:00.973Z,1003.4
2019-02-03T06:49:02.346Z,1003.4
2019-02-03T06:50:03.736Z,1003.4
2019-02-03T06:51:05.120Z,1003.4
2019-02-03T06:52:06.510Z,1003.5
2019-02-03T06:53:07.963Z,1003.5
2019-02-03T06:54:09.358Z,1003.5
2019-02-03T06:55:10.740Z,1003.5
2019-02-03T06:56:12.125Z,1003.6
2019-02-03T06:57:13.519Z,1003.6
2019-02-03T06:58:14.948Z,1003.6
2019-02-03T06:59:16.384Z,1003.6
2019-02-03T07:00:17.802Z,1003.6
2019-02-03T07:01:19.192Z,1003.7
2019-02-03T07:02:20.574Z,1003.7
2019-02-03T07:03:21.965Z,1003.6
2019-02-03T07:04:23.350Z,1003.6
2019-02-03T07:05:24.742Z,1003.7
2019-02-03T07:06:26.213Z,1003.6
2019-02-03T07:07:27.568Z,1003.6
2019-02-03T07:08:28.963Z,1003.6
2019-02-03T07:09:30.352Z,1003.6
2019-02-03T07:10:31.741Z,1003.6
2019-02-03T07:11:33.123Z,1003.6
2019-02-03T07:12:34.506Z,1003.6
2019-02-03T07:13:35.906Z,1003.8
2019-02-03T07:14:37.281Z,1003.7
2019-02-03T07:15:38.668Z,1003.8
2019-02-03T07:16:43.870Z,1003.8
2019-02-03T07:17:41.406Z,1003.8
2019-02-03T07:18:42.805Z,1003.8
2019-02-03T07:19:44.245Z,1003.8
2019-02-03T07:20:45.617Z,1003.8
2019-02-03T07:21:49.361Z,1003.8
2019-02-03T07:22:48.348Z,1003.8
2019-02-03T07:23:49.728Z,1003.8
2019-02-03T07:24:51.113Z,1003.7
2019-02-03T07:25:52.495Z,1003.8
2019-02-03T07:26:53.850Z,1003.8
2019-02-03T07:27:55.233Z,1003.9
2019-02-03T07:28:56.616Z,1003.9
2019-02-03T07:29:58.002Z,1003.9
2019-02-03T07:30:59.393Z,1003.9
2019-02-03T07:32:00.774Z,1003.9
2019-02-03T07:33:02.166Z,1003.9
2019-02-03T07:34:03.562Z,1003.9
2019-02-03T07:35:04.987Z,1003.9
2019-02-03T07:36:06.369Z,1003.9
2019-02-03T07:37:07.760Z,1004.0
2019-02-03T07:38:10.583Z,1004.0
2019-02-03T07:39:10.498Z,1004.0
2019-02-03T07:40:12.791Z,1004.0
2019-02-03T07:41:13.339Z,1004.1
2019-02-03T07:42:14.749Z,1004.0
2019-02-03T07:43:16.137Z,1004.1
2019-02-03T07:44:17.841Z,1004.1
2019-02-03T07:45:19.224Z,1004.1
2019-02-03T07:46:20.608Z,1004.1
2019-02-03T07:47:21.966Z,1004.1
2019-02-03T07:48:23.357Z,1004.2
2019-02-03T07:49:24.749Z,1004.2
2019-02-03T07:50:26.272Z,1004.2
2019-02-03T07:51:27.990Z,1004.2
2019-02-03T07:52:29.398Z,1004.2
2019-02-03T07:53:30.781Z,1004.2
2019-02-03T07:54:32.167Z,1004.2
2019-02-03T07:55:33.585Z,1004.3
2019-02-03T07:56:34.957Z,1004.3
2019-02-03T07:57:36.381Z,1004.3
2019-02-03T07:58:37.790Z,1004.3
2019-02-03T07:59:39.276Z,1004.3
2019-02-03T08:00:40.534Z,1004.4
2019-02-03T08:01:41.936Z,1004.4
2019-02-03T08:02:43.298Z,1004.4
2019-02-03T08:03:44.686Z,1004.5
2019-02-03T08:04:46.100Z,1004.4
2019-02-03T08:05:47.453Z,1004.5
2019-02-03T08:06:48.840Z,1004.5
2019-02-03T08:07:50.248Z,1004.5
2019-02-03T08:08:51.638Z,1004.5
2019-02-03T08:09:53.102Z,1004.4
2019-02-03T08:10:54.507Z,1004.4
2019-02-03T08:11:56.011Z,1004.4
2019-02-03T08:12:57.546Z,1004.6
2019-02-03T08:13:58.753Z,1004.5
2019-02-03T08:15:00.189Z,1004.6
2019-02-03T08:16:01.639Z,1004.6
2019-02-03T08:17:03.027Z,1004.6
2019-02-03T08:18:04.535Z,1004.7
2019-02-03T08:19:05.941Z,1004.7
2019-02-03T08:20:07.329Z,1004.7
2019-02-03T08:21:08.719Z,1004.7
2019-02-03T08:22:10.112Z,1004.7
2019-02-03T08:23:11.505Z,1004.8
2019-02-03T08:24:12.894Z,1004.8
2019-02-03T08:25:14.289Z,1004.7
2019-02-03T08:26:15.678Z,1004.9
2019-02-03T08:27:17.073Z,1004.8
2019-02-03T08:28:18.463Z,1004.8
2019-02-03T08:29:19.929Z,1004.8
2019-02-03T08:30:21.318Z,1004.9
2019-02-03T08:31:22.714Z,1004.9
2019-02-03T08:32:24.109Z,1004.9
2019-02-03T08:33:25.508Z,1004.9
2019-02-03T08:34:26.962Z,1004.9
2019-02-03T08:35:28.326Z,1004.9
2019-02-03T08:36:29.714Z,1005.0
2019-02-03T08:37:31.103Z,1004.9
2019-02-03T08:38:32.508Z,1005.0
2019-02-03T08:39:33.902Z,1005.0
2019-02-03T08:40:37.275Z,1005.0
2019-02-03T08:41:36.935Z,1005.1
2019-02-03T08:42:38.320Z,1005.1
2019-02-03T08:43:39.737Z,1005.1
2019-02-03T08:44:41.086Z,1005.1
2019-02-03T08:45:42.507Z,1005.1
2019-02-03T08:46:43.948Z,1005.2
2019-02-03T08:47:45.660Z,1005.1
2019-02-03T08:48:46.680Z,1005.1
2019-02-03T08:49:48.073Z,1005.1
2019-02-03T08:50:49.463Z,1005.2
2019-02-03T08:51:50.851Z,1005.2
2019-02-03T08:52:52.289Z,1005.3
2019-02-03T08:53:53.725Z,1005.2
2019-02-03T08:54:58.425Z,1005.3
2019-02-03T08:55:56.399Z,1005.3
2019-02-03T08:56:57.796Z,1005.3
2019-02-03T08:57:59.185Z,1005.4
2019-02-03T08:59:00.575Z,1005.3
2019-02-03T09:00:01.968Z,1005.3
2019-02-03T09:01:03.395Z,1005.4
2019-02-03T09:02:04.751Z,1005.4
2019-02-03T09:03:08.594Z,1005.4
2019-02-03T09:04:07.501Z,1005.4
2019-02-03T09:05:08.968Z,1005.4
2019-02-03T09:06:10.336Z,1005.5
2019-02-03T09:07:11.729Z,1005.5
2019-02-03T09:08:13.174Z,1005.5
2019-02-03T09:09:14.574Z,1005.5
2019-02-03T09:10:15.928Z,1005.5
2019-02-03T09:11:17.322Z,1005.5
2019-02-03T09:12:18.713Z,1005.6
2019-02-03T09:13:20.098Z,1005.6
2019-02-03T09:14:21.565Z,1005.6
2019-02-03T09:15:22.957Z,1005.6
2019-02-03T09:16:24.347Z,1005.6
2019-02-03T09:17:25.741Z,1005.6
2019-02-03T09:18:27.146Z,1005.6
2019-02-03T09:19:28.543Z,1005.6
2019-02-03T09:20:29.931Z,1005.6
2019-02-03T09:21:31.322Z,1005.6
2019-02-03T09:22:32.732Z,1005.6
2019-02-03T09:23:34.133Z,1005.6
2019-02-03T09:24:35.523Z,1005.6
2019-02-03T09:25:36.923Z,1005.6
2019-02-03T09:26:38.322Z,1005.7
2019-02-03T09:27:39.715Z,1005.8
2019-02-03T09:28:41.105Z,1005.8
2019-02-03T09:29:42.491Z,1005.8
2019-02-03T09:30:43.885Z,1005.8
2019-02-03T09:31:45.357Z,1005.8
2019-02-03T09:32:46.818Z,1005.8
2019-02-03T09:33:48.125Z,1005.8
2019-02-03T09:34:49.518Z,1005.8
2019-02-03T09:35:50.915Z,1005.8
2019-02-03T09:36:52.310Z,1005.8
2019-02-03T09:37:53.706Z,1005.8
2019-02-03T09:38:55.097Z,1005.8
2019-02-03T09:39:56.490Z,1005.8
2019-02-03T09:41:00.201Z,1005.8
2019-02-03T09:41:59.246Z,1005.9
2019-02-03T09:43:00.641Z,1005.9
2019-02-03T09:44:01.992Z,1005.9
2019-02-03T09:45:03.381Z,1005.9
2019-02-03T09:46:04.774Z,1006.0
2019-02-03T09:47:06.160Z,1005.9
2019-02-03T09:48:07.561Z,1006.0
2019-02-03T09:49:08.948Z,1006.0
2019-02-03T09:50:10.464Z,1006.0
2019-02-03T09:51:11.698Z,1006.0
2019-02-03T09:52:13.104Z,1006.1
2019-02-03T09:53:14.498Z,1006.0
2019-02-03T09:54:15.910Z,1006.0
2019-02-03T09:55:17.373Z,1006.0
2019-02-03T09:56:18.761Z,1006.1
2019-02-03T09:57:20.155Z,1006.1
2019-02-03T09:58:21.620Z,1006.1
2019-02-03T09:59:22.915Z,1006.1
2019-02-03T10:00:24.307Z,1006.1
2019-02-03T10:01:25.714Z,1006.1
2019-02-03T10:02:27.125Z,1006.1
2019-02-03T10:03:28.492Z,1006.3
2019-02-03T10:04:29.889Z,1006.2
2019-02-03T10:05:31.280Z,1006.2
2019-02-03T10:06:32.672Z,1006.2
2019-02-03T10:07:34.064Z,1006.3
2019-02-03T10:08:40.846Z,1006.2
2019-02-03T10:09:36.865Z,1006.3
2019-02-03T10:10:38.267Z,1006.3
2019-02-03T10:11:39.722Z,1006.4
2019-02-03T10:12:41.396Z,1006.4
2019-02-03T10:13:42.799Z,1006.4
2019-02-03T10:14:44.204Z,1006.4
2019-02-03T10:15:45.590Z,1006.5
2019-02-03T10:16:47.553Z,1006.4
2019-02-03T10:17:48.346Z,1006.5
2019-02-03T10:18:49.753Z,1006.5
2019-02-03T10:19:51.155Z,1006.6
2019-02-03T10:20:52.584Z,1006.6
2019-02-03T10:21:54.072Z,1006.6
2019-02-03T10:22:55.471Z,1006.6
2019-02-03T10:23:56.865Z,1006.6
2019-02-03T10:24:58.274Z,1006.5
2019-02-03T10:25:59.663Z,1006.7
2019-02-03T10:27:01.066Z,1006.6
2019-02-03T10:28:02.478Z,1006.7
2019-02-03T10:29:03.886Z,1006.7
2019-02-03T10:30:05.279Z,1006.7
2019-02-03T10:31:06.677Z,1006.7
2019-02-03T10:32:08.072Z,1006.7
2019-02-03T10:33:09.424Z,1006.8
2019-02-03T10:34:10.815Z,1006.8
2019-02-03T10:35:22.642Z,1006.8
2019-02-03T10:36:13.602Z,1006.9
2019-02-03T10:37:14.975Z,1006.8
2019-02-03T10:38:16.379Z,1006.9
2019-02-03T10:39:17.800Z,1006.9
2019-02-03T10:40:19.193Z,1006.9
2019-02-03T10:41:23.942Z,1006.8
2019-02-03T10:42:21.982Z,1006.9
2019-02-03T10:43:23.359Z,1006.9
2019-02-03T10:44:24.753Z,1007.0
2019-02-03T10:45:26.150Z,1007.0
2019-02-03T10:46:27.544Z,1007.0
2019-02-03T10:47:28.943Z,1007.0
2019-02-03T10:48:30.344Z,1007.0
2019-02-03T10:49:31.747Z,1007.0
2019-02-03T10:50:33.142Z,1007.0
2019-02-03T10:51:34.519Z,1007.1
2019-02-03T10:52:35.992Z,1007.0
2019-02-03T10:53:37.295Z,1007.0
2019-02-03T10:54:38.692Z,1007.1
2019-02-03T10:55:40.105Z,1007.1
2019-02-03T10:56:41.511Z,1007.1
2019-02-03T10:57:42.912Z,1007.2
2019-02-03T10:58:44.308Z,1007.2
2019-02-03T10:59:45.707Z,1007.2
2019-02-03T11:00:47.070Z,1007.3
2019-02-03T11:01:48.469Z,1007.2
2019-02-03T11:02:49.868Z,1007.3
2019-02-03T11:03:51.282Z,1007.2
2019-02-03T11:04:52.682Z,1007.3
2019-02-03T11:05:54.086Z,1007.3
2019-02-03T11:06:55.509Z,1007.3
2019-02-03T11:07:56.939Z,1007.3
2019-02-03T11:08:58.340Z,1007.4
2019-02-03T11:09:59.748Z,1007.4
2019-02-03T11:11:01.112Z,1007.4
2019-02-03T11:12:02.565Z,1007.2
2019-02-03T11:13:04.027Z,1007.2
2019-02-03T11:14:05.428Z,1007.2
2019-02-03T11:15:06.791Z,1007.2
2019-02-03T11:16:08.187Z,1007.3
2019-02-03T11:17:09.584Z,1007.3
2019-02-03T11:18:11.002Z,1007.3
2019-02-03T11:19:12.401Z,1007.3
2019-02-03T11:20:13.803Z,1007.3
2019-02-03T11:21:15.206Z,1007.3
2019-02-03T11:22:16.610Z,1007.4
2019-02-03T11:23:18.010Z,1007.3
2019-02-03T11:24:19.402Z,1007.3
2019-02-03T11:25:20.803Z,1007.3
2019-02-03T11:26:22.200Z,1007.4
2019-02-03T11:27:23.599Z,1007.3
2019-02-03T11:28:25.069Z,1007.6
2019-02-03T11:29:26.331Z,1007.6
2019-02-03T11:30:27.739Z,1007.6
2019-02-03T11:31:29.138Z,1007.4
2019-02-03T11:32:30.533Z,1007.5
2019-02-03T11:33:31.936Z,1007.4
2019-02-03T11:34:33.336Z,1007.5
2019-02-03T11:35:34.729Z,1007.5
2019-02-03T11:36:36.167Z,1007.4
2019-02-03T11:37:37.533Z,1007.4
2019-02-03T11:38:38.975Z,1007.5
2019-02-03T11:39:40.395Z,1007.6
2019-02-03T11:40:41.920Z,1007.6
2019-02-03T11:41:49.145Z,1007.7
2019-02-03T11:42:44.562Z,1007.7
2019-02-03T11:43:45.945Z,1007.7
2019-02-03T11:44:47.311Z,1007.7
2019-02-03T11:45:48.718Z,1007.6
2019-02-03T11:46:50.114Z,1007.7
2019-02-03T11:47:51.514Z,1007.7
2019-02-03T11:48:52.906Z,1007.7
2019-02-03T11:49:55.071Z,1007.7
2019-02-03T11:50:56.392Z,1007.6
2019-02-03T11:51:57.788Z,1007.6
2019-02-03T11:52:59.188Z,1007.6
2019-02-03T11:54:00.589Z,1007.6
2019-02-03T11:55:01.983Z,1007.7
2019-02-03T11:56:03.379Z,1007.6
2019-02-03T11:57:04.739Z,1007.6
2019-02-03T11:58:06.146Z,1007.6
2019-02-03T11:59:08.147Z,1007.6
2019-02-03T12:00:09.464Z,1007.6
2019-02-03T12:01:10.865Z,1007.6
2019-02-03T12:02:12.268Z,1007.6
2019-02-03T12:03:13.667Z,1007.6
2019-02-03T12:04:15.078Z,1007.6
2019-02-03T12:05:16.476Z,1007.7
2019-02-03T12:06:17.879Z,1007.7
2019-02-03T12:07:19.238Z,1007.7
2019-02-03T12:08:20.649Z,1007.8
2019-02-03T12:09:22.061Z,1007.7
2019-02-03T12:10:23.452Z,1007.8
2019-02-03T12:11:24.844Z,1007.8
2019-02-03T12:12:26.417Z,1007.8
2019-02-03T12:13:27.800Z,1007.8
2019-02-03T12:14:29.351Z,1007.9
2019-02-03T12:15:30.754Z,1007.8
2019-02-03T12:16:32.153Z,1007.9
2019-02-03T12:17:33.513Z,1007.8
2019-02-03T12:18:34.909Z,1007.8
2019-02-03T12:19:36.398Z,1007.9
2019-02-03T12:20:37.797Z,1007.8
2019-02-03T12:21:39.351Z,1007.9
2019-02-03T12:22:40.757Z,1007.9
2019-02-03T12:23:42.154Z,1007.9
2019-02-03T12:24:43.601Z,1007.9
2019-02-03T12:25:45.014Z,1007.9
2019-02-03T12:26:46.467Z,1007.9
2019-02-03T12:27:47.808Z,1007.9
2019-02-03T12:28:49.270Z,1008.0
2019-02-03T12:29:51.021Z,1008.0
2019-02-03T12:30:52.679Z,1007.9
2019-02-03T12:31:54.074Z,1007.9
2019-02-03T12:32:55.471Z,1007.8
2019-02-03T12:33:56.939Z,1007.8
2019-02-03T12:34:58.340Z,1007.9
2019-02-03T12:35:59.738Z,1007.9
2019-02-03T12:37:01.136Z,1007.9
2019-02-03T12:38:02.497Z,1007.9
2019-02-03T12:39:03.894Z,1007.9
2019-02-03T12:40:05.298Z,1007.9
2019-02-03T12:41:06.694Z,1007.9
2019-02-03T12:42:13.060Z,1007.9
2019-02-03T12:43:09.458Z,1008.0
2019-02-03T12:44:10.862Z,1007.9
2019-02-03T12:45:12.406Z,1007.9
2019-02-03T12:46:14.448Z,1008.0
2019-02-03T12:47:15.887Z,1008.0
2019-02-03T12:48:17.247Z,1008.0
2019-02-03T12:49:18.798Z,1008.0
2019-02-03T12:50:20.405Z,1008.0
2019-02-03T12:51:21.800Z,1008.0